Time;durP1;ratioP1;P1;durP2;ratioP2;P2;SDS_P1;SDS_P2;PMS_P1;PMS_P2;Temp;Humidity;BMP_temperature;BMP_pressure;BME280_temperature;BME280_humidity;BME280_pressure;Samples;Min_cycle;Max_cycle;Signal;HPM_P1;HPM_P2
2023/03/23 00:02:25;;;;;;;6.30;3.10;;;;;;;;;;5051222;28;20476;-79
2023/03/23 00:04:53;;;;;;;5.57;3.13;;;;;;;;;;5052175;28;20454;-79
2023/03/23 00:07:21;;;;;;;4.50;2.67;;;;;;;;;;5048619;28;20455;-79
2023/03/23 00:09:52;;;;;;;5.40;3.20;;;;;;;;;;5048615;28;20521;-78
2023/03/23 00:12:21;;;;;;;5.70;2.77;;;;;;;;;;5048146;28;20522;-80
2023/03/23 00:14:53;;;;;;;7.20;3.33;;;;;;;;;;5049033;28;20449;-80
2023/03/23 00:17:23;;;;;;;5.63;2.90;;;;;;;;;;5050285;28;20478;-80
2023/03/23 00:19:57;;;;;;;7.70;3.27;;;;;;;;;;5048034;28;20463;-80
2023/03/23 00:22:24;;;;;;;5.93;2.73;;;;;;;;;;5048187;28;20461;-80
2023/03/23 00:24:52;;;;;;;5.17;3.13;;;;;;;;;;5050575;28;20500;-81
2023/03/23 00:27:21;;;;;;;4.77;2.67;;;;;;;;;;5051193;28;20439;-80
2023/03/23 00:29:52;;;;;;;7.40;3.27;;;;;;;;;;5049303;28;20477;-79
2023/03/23 00:32:20;;;;;;;5.83;3.33;;;;;;;;;;5046991;28;20518;-80
2023/03/23 00:34:49;;;;;;;5.90;3.13;;;;;;;;;;5048363;28;20533;-79
2023/03/23 00:37:17;;;;;;;8.33;4.10;;;;;;;;;;5047581;28;20450;-81
2023/03/23 00:39:46;;;;;;;4.70;3.03;;;;;;;;;;5046216;28;20453;-78
2023/03/23 00:42:14;;;;;;;10.90;3.20;;;;;;;;;;5045972;28;20442;-79
2023/03/23 00:44:43;;;;;;;4.97;3.00;;;;;;;;;;5045918;28;20454;-79
2023/03/23 00:47:15;;;;;;;5.30;3.07;;;;;;;;;;5047109;28;20553;-78
2023/03/23 00:49:42;;;;;;;5.00;2.90;;;;;;;;;;5047420;28;20633;-80
2023/03/23 00:52:13;;;;;;;9.53;4.37;;;;;;;;;;5049587;28;20858;-79
2023/03/23 00:54:40;;;;;;;6.77;3.97;;;;;;;;;;5048119;28;20462;-78
2023/03/23 00:57:09;;;;;;;6.33;4.63;;;;;;;;;;5047790;28;20446;-80
2023/03/23 00:59:40;;;;;;;11.17;4.10;;;;;;;;;;5047006;28;20450;-78
2023/03/23 01:02:08;;;;;;;9.20;4.27;;;;;;;;;;5048049;28;20509;-80
2023/03/23 01:04:36;;;;;;;6.97;3.90;;;;;;;;;;5046253;28;20508;-78
2023/03/23 01:07:05;;;;;;;7.80;3.53;;;;;;;;;;5046763;28;20469;-79
2023/03/23 01:09:35;;;;;;;7.80;4.10;;;;;;;;;;5043265;28;20451;-80
2023/03/23 01:12:04;;;;;;;10.33;4.50;;;;;;;;;;5042987;28;20458;-80
2023/03/23 01:14:32;;;;;;;15.67;9.43;;;;;;;;;;5041668;28;20524;-79
2023/03/23 01:17:00;;;;;;;6.20;5.23;;;;;;;;;;5040555;28;20596;-79
2023/03/23 01:19:28;;;;;;;11.00;5.70;;;;;;;;;;5039629;28;20466;-81
2023/03/23 01:21:55;;;;;;;6.70;4.10;;;;;;;;;;5039827;28;20825;-80
2023/03/23 01:24:23;;;;;;;8.77;4.77;;;;;;;;;;5039566;28;20446;-80
2023/03/23 01:26:52;;;;;;;5.13;4.00;;;;;;;;;;5039987;28;20877;-81
2023/03/23 01:29:19;;;;;;;6.00;3.60;;;;;;;;;;5039861;28;20488;-81
2023/03/23 01:31:47;;;;;;;10.50;5.43;;;;;;;;;;5039951;28;20476;-80
2023/03/23 01:34:15;;;;;;;10.53;4.40;;;;;;;;;;5041498;28;20734;-81
2023/03/23 01:36:42;;;;;;;8.40;5.20;;;;;;;;;;5041547;28;20562;-81
2023/03/23 01:39:10;;;;;;;7.00;3.90;;;;;;;;;;5042267;28;20535;-81
2023/03/23 01:41:40;;;;;;;9.00;5.10;;;;;;;;;;5042300;28;20516;-81
2023/03/23 01:44:10;;;;;;;6.20;4.27;;;;;;;;;;5043091;28;20455;-82
2023/03/23 01:46:38;;;;;;;7.70;4.70;;;;;;;;;;5042986;28;20577;-80
2023/03/23 01:49:08;;;;;;;8.87;5.10;;;;;;;;;;5042425;28;20785;-81
2023/03/23 01:51:37;;;;;;;6.63;4.80;;;;;;;;;;5042464;28;20489;-80
2023/03/23 01:54:06;;;;;;;8.10;5.60;;;;;;;;;;5041018;28;20876;-80
2023/03/23 01:56:37;;;;;;;9.33;4.60;;;;;;;;;;5041393;28;20728;-81
2023/03/23 01:59:06;;;;;;;10.87;4.90;;;;;;;;;;5040747;28;20491;-79
2023/03/23 02:01:36;;;;;;;8.93;5.40;;;;;;;;;;5042117;28;20554;-80
2023/03/23 02:04:04;;;;;;;13.10;4.73;;;;;;;;;;5041266;28;20462;-81
2023/03/23 02:06:33;;;;;;;8.00;5.00;;;;;;;;;;5040921;28;20462;-81
2023/03/23 02:09:01;;;;;;;16.90;4.90;;;;;;;;;;5040763;28;20466;-80
2023/03/23 02:11:28;;;;;;;7.30;5.47;;;;;;;;;;5042130;28;20458;-80
2023/03/23 02:13:56;;;;;;;7.87;4.80;;;;;;;;;;5041062;28;20939;-80
2023/03/23 02:16:30;;;;;;;7.70;4.87;;;;;;;;;;5041999;28;20466;-81
2023/03/23 02:19:08;;;;;;;9.97;5.87;;;;;;;;;;5041015;28;20465;-80
2023/03/23 02:21:53;;;;;;;7.67;6.03;;;;;;;;;;5041723;28;20490;-81
2023/03/23 02:24:39;;;;;;;7.20;5.30;;;;;;;;;;5042055;28;20968;-81
2023/03/23 02:27:09;;;;;;;8.73;5.63;;;;;;;;;;5042241;28;20944;-81
2023/03/23 02:30:04;;;;;;;6.67;5.13;;;;;;;;;;5042348;28;20846;-80
2023/03/23 02:32:40;;;;;;;7.63;5.13;;;;;;;;;;4996231;28;20743;-80
2023/03/23 02:35:10;;;;;;;7.13;5.50;;;;;;;;;;5041761;28;20520;-80
2023/03/23 02:37:39;;;;;;;6.87;5.17;;;;;;;;;;5041825;28;20524;-80
2023/03/23 02:40:11;;;;;;;9.43;4.40;;;;;;;;;;5040568;28;20446;-81
2023/03/23 02:42:40;;;;;;;10.00;4.70;;;;;;;;;;5041187;28;20521;-80
2023/03/23 02:45:10;;;;;;;7.70;5.70;;;;;;;;;;5043262;28;20506;-82
2023/03/23 02:47:38;;;;;;;9.30;4.93;;;;;;;;;;5039741;28;20531;-80
2023/03/23 02:50:07;;;;;;;8.73;4.47;;;;;;;;;;5039321;28;20508;-81
2023/03/23 02:52:38;;;;;;;6.70;4.40;;;;;;;;;;5039562;28;20545;-81
2023/03/23 02:55:06;;;;;;;10.73;6.40;;;;;;;;;;5039158;28;20451;-80
2023/03/23 02:57:33;;;;;;;8.57;5.60;;;;;;;;;;5039187;28;20458;-81
2023/03/23 03:00:01;;;;;;;11.03;6.20;;;;;;;;;;5039416;28;20454;-81
2023/03/23 03:02:29;;;;;;;8.33;5.80;;;;;;;;;;5039596;28;20577;-80
2023/03/23 03:05:03;;;;;;;9.47;5.00;;;;;;;;;;5040829;28;20458;-79
2023/03/23 03:07:54;;;;;;;9.30;5.90;;;;;;;;;;5045621;28;20489;-80
2023/03/23 03:10:26;;;;;;;7.90;5.70;;;;;;;;;;5043923;28;20658;-81
2023/03/23 03:12:57;;;;;;;7.80;5.93;;;;;;;;;;5044819;28;20465;-79
2023/03/23 03:15:28;;;;;;;11.57;6.20;;;;;;;;;;5046057;28;20446;-79
2023/03/23 03:17:59;;;;;;;9.47;6.23;;;;;;;;;;5047491;28;20465;-81
2023/03/23 03:20:27;;;;;;;7.73;5.43;;;;;;;;;;5047353;28;20473;-80
2023/03/23 03:22:57;;;;;;;9.07;6.60;;;;;;;;;;5045567;28;20493;-80
2023/03/23 03:25:27;;;;;;;8.00;5.63;;;;;;;;;;5044086;28;20512;-78
2023/03/23 03:27:55;;;;;;;8.60;6.03;;;;;;;;;;5044126;28;20498;-80
2023/03/23 03:30:24;;;;;;;9.10;6.70;;;;;;;;;;5043753;28;20473;-80
2023/03/23 03:32:54;;;;;;;8.30;6.10;;;;;;;;;;5044910;28;20840;-80
2023/03/23 03:35:23;;;;;;;7.70;6.10;;;;;;;;;;5043541;28;20504;-80
2023/03/23 03:37:50;;;;;;;8.47;6.47;;;;;;;;;;5044066;28;20493;-79
2023/03/23 03:40:21;;;;;;;9.00;6.77;;;;;;;;;;5043783;28;20530;-80
2023/03/23 03:42:48;;;;;;;14.03;6.27;;;;;;;;;;5047507;28;20556;-78
2023/03/23 03:45:17;;;;;;;8.17;6.10;;;;;;;;;;5047219;28;20454;-80
2023/03/23 03:47:45;;;;;;;9.13;6.40;;;;;;;;;;5046240;28;20493;-80
2023/03/23 03:50:12;;;;;;;8.30;5.13;;;;;;;;;;5046817;28;20450;-81
2023/03/23 03:52:41;;;;;;;7.90;5.47;;;;;;;;;;5046577;28;20532;-81
2023/03/23 03:55:09;;;;;;;10.33;5.77;;;;;;;;;;5046274;28;20541;-80
2023/03/23 03:57:39;;;;;;;7.63;6.50;;;;;;;;;;5048136;28;20471;-80
2023/03/23 04:00:14;;;;;;;8.50;6.77;;;;;;;;;;5048447;28;20454;-79
2023/03/23 04:02:42;;;;;;;9.17;6.10;;;;;;;;;;5048725;28;20517;-80
2023/03/23 04:05:11;;;;;;;8.10;6.47;;;;;;;;;;5049099;28;20480;-82
2023/03/23 04:07:39;;;;;;;12.00;6.80;;;;;;;;;;5049192;28;20462;-79
2023/03/23 04:10:07;;;;;;;9.50;6.30;;;;;;;;;;5048252;28;20492;-79
2023/03/23 04:12:35;;;;;;;8.40;6.80;;;;;;;;;;5049394;28;20458;-80
2023/03/23 04:15:09;;;;;;;8.70;6.37;;;;;;;;;;5048981;28;20468;-80
2023/03/23 04:17:37;;;;;;;8.67;6.60;;;;;;;;;;5049215;28;20453;-81
2023/03/23 04:20:07;;;;;;;10.40;6.53;;;;;;;;;;5048211;28;20469;-79
2023/03/23 04:22:35;;;;;;;9.53;5.80;;;;;;;;;;5049056;28;20907;-80
2023/03/23 04:25:06;;;;;;;9.70;6.40;;;;;;;;;;5049503;28;20450;-80
2023/03/23 04:27:34;;;;;;;8.27;5.80;;;;;;;;;;5048970;28;20462;-79
2023/03/23 04:30:02;;;;;;;8.50;6.13;;;;;;;;;;5049202;28;20490;-79
2023/03/23 04:32:31;;;;;;;8.43;7.03;;;;;;;;;;5046469;28;20773;-80
2023/03/23 04:35:00;;;;;;;6.30;5.23;;;;;;;;;;5045488;28;20473;-79
2023/03/23 04:37:28;;;;;;;7.97;6.43;;;;;;;;;;5046477;28;20443;-80
2023/03/23 04:40:00;;;;;;;7.27;5.50;;;;;;;;;;5046644;28;20579;-80
2023/03/23 04:42:28;;;;;;;7.23;5.93;;;;;;;;;;5047517;28;20506;-80
2023/03/23 04:44:56;;;;;;;6.73;6.03;;;;;;;;;;5047311;28;20462;-79
2023/03/23 04:47:23;;;;;;;9.70;6.13;;;;;;;;;;5040555;28;20466;-81
2023/03/23 04:49:52;;;;;;;5.77;5.17;;;;;;;;;;5040437;28;20458;-80
2023/03/23 04:52:20;;;;;;;8.50;5.30;;;;;;;;;;5039447;28;20458;-80
2023/03/23 04:54:48;;;;;;;6.30;5.60;;;;;;;;;;5039830;28;20454;-80
2023/03/23 04:57:16;;;;;;;7.10;5.23;;;;;;;;;;5040788;28;20881;-80
2023/03/23 04:59:44;;;;;;;7.13;5.43;;;;;;;;;;5040105;28;20458;-80
2023/03/23 05:02:12;;;;;;;7.57;4.97;;;;;;;;;;5040400;28;20506;-80
2023/03/23 05:04:41;;;;;;;8.37;5.20;;;;;;;;;;5041059;28;20505;-80
2023/03/23 05:07:12;;;;;;;8.10;5.17;;;;;;;;;;5040939;28;20541;-81
2023/03/23 05:09:39;;;;;;;7.33;5.10;;;;;;;;;;5040667;28;20458;-80
2023/03/23 05:12:09;;;;;;;7.37;4.63;;;;;;;;;;5041641;28;20438;-81
2023/03/23 05:14:36;;;;;;;8.57;5.03;;;;;;;;;;5040184;28;20462;-80
2023/03/23 05:17:04;;;;;;;6.87;5.57;;;;;;;;;;5042324;28;20529;-81
2023/03/23 05:19:33;;;;;;;4.93;4.03;;;;;;;;;;5041043;28;20882;-79
2023/03/23 05:22:02;;;;;;;5.87;3.93;;;;;;;;;;5041730;28;20556;-78
2023/03/23 05:24:32;;;;;;;7.60;4.17;;;;;;;;;;5041918;28;20541;-80
2023/03/23 05:27:00;;;;;;;6.80;4.93;;;;;;;;;;5041200;28;20497;-80
2023/03/23 05:29:30;;;;;;;5.17;3.83;;;;;;;;;;5041525;28;20516;-80
2023/03/23 05:31:59;;;;;;;5.93;3.60;;;;;;;;;;5039685;28;20459;-81
2023/03/23 05:34:28;;;;;;;5.07;4.07;;;;;;;;;;5040341;28;20454;-80
2023/03/23 05:36:57;;;;;;;5.93;3.47;;;;;;;;;;5039529;28;20463;-81
2023/03/23 05:39:25;;;;;;;5.97;3.80;;;;;;;;;;5039435;28;20509;-81
2023/03/23 05:41:54;;;;;;;4.60;3.60;;;;;;;;;;5039299;28;21007;-81
2023/03/23 05:44:21;;;;;;;6.47;4.27;;;;;;;;;;5038833;28;20501;-79
2023/03/23 05:46:49;;;;;;;4.43;3.53;;;;;;;;;;5038143;28;20531;-80
2023/03/23 05:49:17;;;;;;;6.23;3.27;;;;;;;;;;5038019;28;20457;-81
2023/03/23 05:51:45;;;;;;;4.03;2.57;;;;;;;;;;5038792;28;20562;-81
2023/03/23 05:54:14;;;;;;;5.40;3.23;;;;;;;;;;5036790;28;20851;-79
2023/03/23 05:56:42;;;;;;;7.23;3.80;;;;;;;;;;5036519;28;20473;-80
2023/03/23 05:59:11;;;;;;;6.60;3.87;;;;;;;;;;5035549;28;20469;-80
2023/03/23 06:01:39;;;;;;;7.17;3.90;;;;;;;;;;5035831;28;20458;-81
2023/03/23 06:04:06;;;;;;;6.60;3.67;;;;;;;;;;5034584;28;20718;-81
2023/03/23 06:06:34;;;;;;;4.20;3.00;;;;;;;;;;5035699;28;20870;-80
2023/03/23 06:09:03;;;;;;;5.80;3.47;;;;;;;;;;5034737;28;20473;-80
2023/03/23 06:11:30;;;;;;;4.47;2.63;;;;;;;;;;5035495;28;20462;-80
2023/03/23 06:13:58;;;;;;;6.00;3.80;;;;;;;;;;5034565;28;20529;-80
2023/03/23 06:16:27;;;;;;;6.83;3.10;;;;;;;;;;5035202;28;20458;-80
2023/03/23 06:18:56;;;;;;;5.13;3.20;;;;;;;;;;5034112;28;20486;-80
2023/03/23 06:21:24;;;;;;;4.83;2.97;;;;;;;;;;5036638;28;20987;-79
2023/03/23 06:23:51;;;;;;;3.77;2.57;;;;;;;;;;5032500;28;20470;-80
2023/03/23 06:26:20;;;;;;;3.30;2.30;;;;;;;;;;5034308;28;20564;-81
2023/03/23 06:28:47;;;;;;;5.37;2.30;;;;;;;;;;5036345;28;20766;-80
2023/03/23 06:31:17;;;;;;;3.70;2.50;;;;;;;;;;5037530;28;20462;-81
2023/03/23 06:33:47;;;;;;;3.63;2.57;;;;;;;;;;5034190;28;20481;-79
2023/03/23 06:36:14;;;;;;;5.57;2.43;;;;;;;;;;5019198;28;20469;-81
2023/03/23 06:38:42;;;;;;;4.00;2.40;;;;;;;;;;5015087;28;20447;-80
2023/03/23 06:41:10;;;;;;;3.20;2.27;;;;;;;;;;5031557;28;20470;-80
2023/03/23 06:43:39;;;;;;;3.30;2.60;;;;;;;;;;5035185;28;20552;-81
2023/03/23 06:46:08;;;;;;;4.17;2.50;;;;;;;;;;5032844;28;20493;-80
2023/03/23 06:48:38;;;;;;;4.87;2.23;;;;;;;;;;5032690;28;21071;-80
2023/03/23 06:51:08;;;;;;;4.63;2.50;;;;;;;;;;5032352;28;20525;-81
2023/03/23 06:53:35;;;;;;;4.53;2.50;;;;;;;;;;5033705;28;20512;-79
2023/03/23 06:56:03;;;;;;;4.77;2.20;;;;;;;;;;5029746;28;20465;-80
2023/03/23 06:58:30;;;;;;;4.87;2.20;;;;;;;;;;5027156;28;20927;-80
2023/03/23 07:00:58;;;;;;;3.67;2.20;;;;;;;;;;5027072;28;20450;-80
2023/03/23 07:03:27;;;;;;;5.10;2.50;;;;;;;;;;5027870;28;20490;-80
2023/03/23 07:05:55;;;;;;;5.10;1.70;;;;;;;;;;5027391;28;20511;-80
2023/03/23 07:08:27;;;;;;;3.03;1.70;;;;;;;;;;5030345;28;20563;-80
2023/03/23 07:10:55;;;;;;;4.27;2.33;;;;;;;;;;5035562;28;20462;-80
2023/03/23 07:13:22;;;;;;;3.40;2.00;;;;;;;;;;5024289;28;20520;-79
2023/03/23 07:15:51;;;;;;;3.10;1.80;;;;;;;;;;5033843;28;20455;-80
2023/03/23 07:18:20;;;;;;;5.77;2.67;;;;;;;;;;5031141;28;20549;-80
2023/03/23 07:20:49;;;;;;;5.03;1.93;;;;;;;;;;5027977;28;20484;-79
2023/03/23 07:23:17;;;;;;;2.60;1.60;;;;;;;;;;5029306;28;20485;-80
2023/03/23 07:25:48;;;;;;;3.67;2.10;;;;;;;;;;5023282;28;20466;-79
2023/03/23 07:28:16;;;;;;;4.20;2.50;;;;;;;;;;5030870;28;20486;-79
2023/03/23 07:30:43;;;;;;;5.03;2.50;;;;;;;;;;5032327;28;20512;-79
2023/03/23 07:33:12;;;;;;;3.30;2.10;;;;;;;;;;5029993;28;20473;-79
2023/03/23 07:35:40;;;;;;;3.43;2.20;;;;;;;;;;5034894;28;20462;-79
2023/03/23 07:38:08;;;;;;;3.00;1.80;;;;;;;;;;5034435;28;20474;-79
2023/03/23 07:40:36;;;;;;;11.20;2.30;;;;;;;;;;5037742;28;20490;-80
2023/03/23 07:43:05;;;;;;;3.53;1.80;;;;;;;;;;5030635;28;20854;-79
2023/03/23 07:45:33;;;;;;;3.23;2.00;;;;;;;;;;5035703;28;20857;-78
2023/03/23 07:48:01;;;;;;;2.70;1.60;;;;;;;;;;5041715;28;20465;-79
2023/03/23 07:50:30;;;;;;;5.67;2.37;;;;;;;;;;5042203;28;21330;-78
2023/03/23 07:52:58;;;;;;;3.47;2.30;;;;;;;;;;5039603;28;20489;-79
2023/03/23 07:55:29;;;;;;;2.60;1.87;;;;;;;;;;5039715;28;20458;-80
2023/03/23 07:57:57;;;;;;;2.60;1.50;;;;;;;;;;5040695;28;20821;-78
2023/03/23 08:00:26;;;;;;;6.13;3.00;;;;;;;;;;5042636;28;20493;-77
2023/03/23 08:02:58;;;;;;;3.80;1.83;;;;;;;;;;5039141;28;20563;-80
2023/03/23 08:05:27;;;;;;;4.67;2.20;;;;;;;;;;5043848;28;20474;-77
2023/03/23 08:07:55;;;;;;;6.37;1.63;;;;;;;;;;5041426;28;20796;-79
2023/03/23 08:10:24;;;;;;;2.97;1.70;;;;;;;;;;5042570;28;20523;-79
2023/03/23 08:12:53;;;;;;;3.13;2.00;;;;;;;;;;5041979;28;20469;-79
2023/03/23 08:15:21;;;;;;;5.97;1.90;;;;;;;;;;5037331;28;20454;-78
2023/03/23 08:17:51;;;;;;;3.33;2.03;;;;;;;;;;5035516;28;20473;-78
2023/03/23 08:20:19;;;;;;;2.93;1.97;;;;;;;;;;5036540;28;20496;-79
2023/03/23 08:22:47;;;;;;;3.43;1.50;;;;;;;;;;5040708;28;21173;-80
2023/03/23 08:25:16;;;;;;;2.43;1.67;;;;;;;;;;5037797;28;20458;-79
2023/03/23 08:27:45;;;;;;;3.80;2.10;;;;;;;;;;5041821;28;20463;-80
2023/03/23 08:30:15;;;;;;;2.80;1.60;;;;;;;;;;5035842;28;20467;-79
2023/03/23 08:32:42;;;;;;;4.60;2.13;;;;;;;;;;5036169;28;20861;-80
2023/03/23 08:35:12;;;;;;;4.70;2.07;;;;;;;;;;5037612;28;20462;-79
2023/03/23 08:37:41;;;;;;;3.43;1.80;;;;;;;;;;5036557;28;20460;-79
2023/03/23 08:40:09;;;;;;;4.00;1.70;;;;;;;;;;5044208;28;20470;-80
2023/03/23 08:42:38;;;;;;;3.03;1.97;;;;;;;;;;5041857;28;20487;-78
2023/03/23 08:45:10;;;;;;;2.47;1.33;;;;;;;;;;5041528;28;20485;-80
2023/03/23 08:47:38;;;;;;;4.20;2.10;;;;;;;;;;5037697;28;21144;-79
2023/03/23 08:50:06;;;;;;;3.40;2.47;;;;;;;;;;5022648;28;20562;-79
2023/03/23 08:52:37;;;;;;;3.10;1.60;;;;;;;;;;5033771;28;20530;-79
2023/03/23 08:55:04;;;;;;;2.73;1.80;;;;;;;;;;5037681;28;20478;-80
2023/03/23 08:57:32;;;;;;;3.93;1.73;;;;;;;;;;5025701;28;20486;-79
2023/03/23 09:00:13;;;;;;;2.23;1.60;;;;;;;;;;5021016;28;20459;-79
2023/03/23 09:02:41;;;;;;;3.30;2.00;;;;;;;;;;5034089;28;20481;-79
2023/03/23 09:05:14;;;;;;;2.20;1.30;;;;;;;;;;5036558;28;20486;-78
2023/03/23 09:07:48;;;;;;;6.07;1.90;;;;;;;;;;5023737;28;20470;-78
2023/03/23 09:10:16;;;;;;;4.13;1.83;;;;;;;;;;5039614;28;20469;-78
2023/03/23 09:12:55;;;;;;;7.27;2.03;;;;;;;;;;5036529;28;20460;-80
2023/03/23 09:15:23;;;;;;;7.70;2.40;;;;;;;;;;5044008;28;20494;-78
2023/03/23 09:17:53;;;;;;;6.03;2.20;;;;;;;;;;5043408;28;20460;-82
2023/03/23 09:20:30;;;;;;;5.20;1.83;;;;;;;;;;5036554;28;20743;-82
2023/03/23 09:22:59;;;;;;;4.23;1.90;;;;;;;;;;5044261;28;20482;-79
2023/03/23 09:25:28;;;;;;;3.20;1.90;;;;;;;;;;5036120;28;20473;-80
2023/03/23 09:27:57;;;;;;;2.63;1.47;;;;;;;;;;5035049;28;21122;-80
2023/03/23 09:30:26;;;;;;;5.73;1.80;;;;;;;;;;5034218;28;20454;-79
2023/03/23 09:32:54;;;;;;;3.70;1.70;;;;;;;;;;5038862;28;20490;-79
2023/03/23 09:35:22;;;;;;;2.47;1.47;;;;;;;;;;5037714;28;20463;-79
2023/03/23 09:37:51;;;;;;;2.77;2.00;;;;;;;;;;5034009;28;20550;-79
2023/03/23 09:40:21;;;;;;;4.43;1.50;;;;;;;;;;5033528;28;20757;-79
2023/03/23 09:42:56;;;;;;;4.60;1.50;;;;;;;;;;5033519;28;20447;-81
2023/03/23 09:45:29;;;;;;;4.37;1.67;;;;;;;;;;5034027;28;20470;-80
2023/03/23 09:48:13;;;;;;;6.67;3.23;;;;;;;;;;5040470;28;20787;-81
2023/03/23 09:50:44;;;;;;;5.43;1.70;;;;;;;;;;5035398;28;20462;-80
2023/03/23 09:53:18;;;;;;;4.87;1.63;;;;;;;;;;5039698;28;20446;-81
2023/03/23 09:55:50;;;;;;;7.33;2.13;;;;;;;;;;5037156;28;20573;-80
2023/03/23 09:58:20;;;;;;;7.13;1.50;;;;;;;;;;5044498;28;20469;-80
2023/03/23 10:00:49;;;;;;;6.20;2.40;;;;;;;;;;5040345;28;20459;-81
2023/03/23 10:03:19;;;;;;;4.73;1.80;;;;;;;;;;5037040;28;20561;-82
2023/03/23 10:05:48;;;;;;;9.83;3.33;;;;;;;;;;5015325;28;20466;-81
2023/03/23 10:08:17;;;;;;;7.60;2.40;;;;;;;;;;5037996;28;20572;-80
2023/03/23 10:10:51;;;;;;;6.80;1.33;;;;;;;;;;5033811;28;20496;-79
2023/03/23 10:13:24;;;;;;;4.37;1.70;;;;;;;;;;5039812;28;20441;-80
2023/03/23 10:15:52;;;;;;;5.30;1.67;;;;;;;;;;5034651;28;20962;-80
2023/03/23 10:18:22;;;;;;;5.17;1.80;;;;;;;;;;5039791;28;20540;-79
2023/03/23 10:20:52;;;;;;;5.97;1.70;;;;;;;;;;5034292;28;20524;-80
2023/03/23 10:23:42;;;;;;;4.97;2.00;;;;;;;;;;5032158;28;20836;-78
2023/03/23 10:29:03;;;;;;;6.20;1.70;;;;;;;;;;5046444;28;20566;-79
2023/03/23 10:31:33;;;;;;;8.63;1.50;;;;;;;;;;5038203;28;20460;-80
2023/03/23 10:34:05;;;;;;;9.90;2.10;;;;;;;;;;5038990;28;20482;-79
2023/03/23 10:36:36;;;;;;;9.40;2.50;;;;;;;;;;5039084;28;20865;-81
2023/03/23 10:39:07;;;;;;;7.67;1.47;;;;;;;;;;5034519;28;20458;-81
2023/03/23 10:41:37;;;;;;;5.93;1.50;;;;;;;;;;5031210;28;20722;-80
2023/03/23 10:44:11;;;;;;;6.43;2.23;;;;;;;;;;5034631;28;20483;-80
2023/03/23 10:46:46;;;;;;;8.13;2.50;;;;;;;;;;5024217;28;20463;-79
2023/03/23 10:49:20;;;;;;;4.90;2.07;;;;;;;;;;5036458;28;20839;-81
2023/03/23 10:51:51;;;;;;;7.20;2.40;;;;;;;;;;5040079;28;20518;-78
2023/03/23 10:54:27;;;;;;;4.20;1.63;;;;;;;;;;5031424;28;20450;-78
2023/03/23 10:56:57;;;;;;;9.13;3.97;;;;;;;;;;5021202;28;20481;-80
2023/03/23 10:59:29;;;;;;;5.10;2.37;;;;;;;;;;5028944;28;20548;-79
2023/03/23 11:02:05;;;;;;;13.90;3.00;;;;;;;;;;5036849;28;20541;-79
2023/03/23 11:04:34;;;;;;;7.60;2.30;;;;;;;;;;5038167;28;20477;-79
2023/03/23 11:07:03;;;;;;;12.97;2.33;;;;;;;;;;5037727;28;20474;-80
2023/03/23 11:09:37;;;;;;;5.33;2.13;;;;;;;;;;5034285;28;20512;-80
2023/03/23 11:12:18;;;;;;;5.17;1.80;;;;;;;;;;5027666;28;20473;-79
2023/03/23 11:14:45;;;;;;;3.80;1.77;;;;;;;;;;5030129;28;20463;-80
2023/03/23 11:17:21;;;;;;;5.17;1.47;;;;;;;;;;5033403;28;20549;-80
2023/03/23 11:19:49;;;;;;;4.50;1.80;;;;;;;;;;5020964;28;20560;-80
2023/03/23 11:22:20;;;;;;;6.30;2.00;;;;;;;;;;5033072;28;20462;-79
2023/03/23 11:24:54;;;;;;;5.60;1.70;;;;;;;;;;5033894;28;20785;-79
2023/03/23 11:27:24;;;;;;;5.33;2.30;;;;;;;;;;5036240;28;20497;-79
2023/03/23 11:29:56;;;;;;;5.30;2.20;;;;;;;;;;5040084;28;20474;-81
2023/03/23 11:32:26;;;;;;;5.67;1.90;;;;;;;;;;5038450;28;20526;-79
2023/03/23 11:35:11;;;;;;;4.93;1.33;;;;;;;;;;5035411;28;20463;-79
2023/03/23 11:37:42;;;;;;;4.50;1.40;;;;;;;;;;5039189;28;20474;-78
2023/03/23 11:40:18;;;;;;;4.60;1.63;;;;;;;;;;5031298;28;20512;-79
2023/03/23 11:43:04;;;;;;;4.13;1.80;;;;;;;;;;5038328;28;20470;-78
2023/03/23 11:46:00;;;;;;;8.67;2.43;;;;;;;;;;5035896;28;20492;-79
2023/03/23 11:48:36;;;;;;;7.13;1.93;;;;;;;;;;5038241;28;20454;-79
2023/03/23 11:51:06;;;;;;;6.07;1.30;;;;;;;;;;5035487;28;20458;-80
2023/03/23 11:53:41;;;;;;;4.40;1.67;;;;;;;;;;5044042;28;20450;-78
2023/03/23 11:56:27;;;;;;;5.47;2.13;;;;;;;;;;5030322;28;20469;-79
2023/03/23 11:59:00;;;;;;;7.87;2.07;;;;;;;;;;5035934;28;20538;-79
2023/03/23 12:04:45;;;;;;;5.67;1.10;;;;;;;;;;5043783;28;20553;-79
2023/03/23 12:07:24;;;;;;;9.13;2.23;;;;;;;;;;5033966;28;20561;-79
2023/03/23 12:09:59;;;;;;;8.10;1.10;;;;;;;;;;5041237;28;21217;-78
2023/03/23 12:12:40;;;;;;;12.13;1.80;;;;;;;;;;5040858;28;20473;-79
2023/03/23 12:15:31;;;;;;;8.30;2.20;;;;;;;;;;5024283;28;20465;-79
2023/03/23 12:18:02;;;;;;;6.70;2.47;;;;;;;;;;5041362;28;20568;-78
2023/03/23 12:20:35;;;;;;;8.50;2.10;;;;;;;;;;5047892;28;20466;-79
2023/03/23 12:23:11;;;;;;;6.33;1.70;;;;;;;;;;5028227;28;20478;-79
2023/03/23 12:25:58;;;;;;;6.73;1.97;;;;;;;;;;5039763;28;20479;-80
2023/03/23 12:28:37;;;;;;;6.93;2.00;;;;;;;;;;5040166;28;20462;-78
2023/03/23 12:31:11;;;;;;;12.40;5.50;;;;;;;;;;5033314;28;20549;-78
2023/03/23 12:33:46;;;;;;;6.23;2.17;;;;;;;;;;5033572;28;20463;-80
2023/03/23 12:36:21;;;;;;;4.73;1.57;;;;;;;;;;5035428;28;20501;-79
2023/03/23 12:39:05;;;;;;;11.03;2.30;;;;;;;;;;5032257;28;20468;-78
2023/03/23 12:41:35;;;;;;;6.77;2.37;;;;;;;;;;5032226;28;20482;-79
2023/03/23 12:44:06;;;;;;;12.00;3.30;;;;;;;;;;5032471;28;20513;-80
2023/03/23 12:46:58;;;;;;;4.70;1.97;;;;;;;;;;5030111;28;20494;-78
2023/03/23 12:49:29;;;;;;;4.77;1.57;;;;;;;;;;5034994;28;20498;-80
2023/03/23 12:52:01;;;;;;;4.30;2.00;;;;;;;;;;5033928;28;20466;-78
2023/03/23 12:54:31;;;;;;;6.63;2.40;;;;;;;;;;5035800;28;20449;-79
2023/03/23 12:57:03;;;;;;;8.90;2.83;;;;;;;;;;5038795;28;21155;-79
2023/03/23 12:59:43;;;;;;;5.97;2.73;;;;;;;;;;5038101;28;20490;-80
2023/03/23 13:02:16;;;;;;;4.60;1.87;;;;;;;;;;5034056;28;20462;-80
2023/03/23 13:04:46;;;;;;;2.10;1.30;;;;;;;;;;5036490;28;20478;-80
2023/03/23 13:07:18;;;;;;;9.40;2.20;;;;;;;;;;5035601;28;20782;-80
2023/03/23 13:09:51;;;;;;;8.47;2.53;;;;;;;;;;5035574;28;20462;-79
2023/03/23 13:12:20;;;;;;;7.40;2.10;;;;;;;;;;5037852;28;20458;-81
2023/03/23 13:14:52;;;;;;;5.00;2.13;;;;;;;;;;5033412;28;20446;-80
2023/03/23 13:17:35;;;;;;;3.50;2.00;;;;;;;;;;5034489;28;20454;-80
2023/03/23 13:20:16;;;;;;;5.00;2.00;;;;;;;;;;5038847;28;20882;-80
2023/03/23 13:23:02;;;;;;;4.80;1.87;;;;;;;;;;5035606;28;20461;-79
2023/03/23 13:25:39;;;;;;;9.03;4.77;;;;;;;;;;5033705;28;20494;-81
2023/03/23 13:28:07;;;;;;;5.60;1.80;;;;;;;;;;5039547;28;20530;-78
2023/03/23 13:30:36;;;;;;;5.07;1.93;;;;;;;;;;5030465;28;21289;-80
2023/03/23 13:33:05;;;;;;;4.50;2.10;;;;;;;;;;5033331;28;20552;-79
2023/03/23 13:35:39;;;;;;;7.63;2.20;;;;;;;;;;5034124;28;20537;-79
2023/03/23 13:38:19;;;;;;;3.80;1.60;;;;;;;;;;5033952;28;20474;-79
2023/03/23 13:40:47;;;;;;;5.80;1.60;;;;;;;;;;5034111;28;20497;-79
2023/03/23 13:43:16;;;;;;;2.73;1.00;;;;;;;;;;5031049;28;20457;-79
2023/03/23 13:45:48;;;;;;;3.50;1.50;;;;;;;;;;5038507;28;20541;-79
2023/03/23 13:48:23;;;;;;;5.27;1.60;;;;;;;;;;5034539;28;20520;-78
2023/03/23 13:50:52;;;;;;;3.50;1.53;;;;;;;;;;5030356;28;20817;-78
2023/03/23 13:53:28;;;;;;;3.13;0.87;;;;;;;;;;5034479;28;20524;-77
2023/03/23 13:56:08;;;;;;;1.80;0.73;;;;;;;;;;5033150;28;20450;-79
2023/03/23 13:58:45;;;;;;;4.27;1.10;;;;;;;;;;5033481;28;20462;-79
2023/03/23 14:01:16;;;;;;;4.47;1.17;;;;;;;;;;5027422;28;20616;-80
2023/03/23 14:03:45;;;;;;;2.53;1.17;;;;;;;;;;5034404;28;20458;-79
2023/03/23 14:06:15;;;;;;;2.40;0.90;;;;;;;;;;5033794;28;20540;-79
2023/03/23 14:08:45;;;;;;;1.73;0.80;;;;;;;;;;5035843;28;20525;-79
2023/03/23 14:11:15;;;;;;;1.63;0.60;;;;;;;;;;5032212;28;20474;-79
2023/03/23 14:13:49;;;;;;;1.90;0.93;;;;;;;;;;5040140;28;20446;-78
2023/03/23 14:16:18;;;;;;;5.87;1.10;;;;;;;;;;5037925;28;20512;-79
2023/03/23 14:18:54;;;;;;;5.47;2.67;;;;;;;;;;5039915;28;20472;-77
2023/03/23 14:21:43;;;;;;;3.30;1.10;;;;;;;;;;5036873;28;20611;-79
2023/03/23 14:24:15;;;;;;;1.50;0.80;;;;;;;;;;5028725;28;20466;-80
2023/03/23 14:26:48;;;;;;;3.30;1.60;;;;;;;;;;5037505;28;20456;-80
2023/03/23 14:29:17;;;;;;;4.97;1.47;;;;;;;;;;5041418;28;20453;-79
2023/03/23 14:31:45;;;;;;;2.67;1.27;;;;;;;;;;5041814;28;20881;-79
2023/03/23 14:34:20;;;;;;;4.50;1.67;;;;;;;;;;5040577;28;20477;-81
2023/03/23 14:36:48;;;;;;;4.80;1.90;;;;;;;;;;5021262;28;20878;-78
2023/03/23 14:39:21;;;;;;;2.43;1.00;;;;;;;;;;5036109;28;20451;-78
2023/03/23 14:41:49;;;;;;;3.13;1.20;;;;;;;;;;5026685;28;20609;-78
2023/03/23 14:44:18;;;;;;;2.50;1.13;;;;;;;;;;5016869;28;20458;-77
2023/03/23 14:46:47;;;;;;;1.87;0.87;;;;;;;;;;5016428;28;20933;-78
2023/03/23 14:49:16;;;;;;;5.63;1.37;;;;;;;;;;5021785;28;20446;-78
2023/03/23 14:51:54;;;;;;;3.13;1.53;;;;;;;;;;5038737;28;20461;-78
2023/03/23 14:54:30;;;;;;;2.53;1.10;;;;;;;;;;5039364;28;20881;-80
2023/03/23 14:56:58;;;;;;;2.40;1.20;;;;;;;;;;5035766;28;20466;-78
2023/03/23 14:59:26;;;;;;;5.83;1.00;;;;;;;;;;5018668;28;20462;-80
2023/03/23 15:01:55;;;;;;;3.80;1.10;;;;;;;;;;5034816;28;20461;-80
2023/03/23 15:04:25;;;;;;;3.33;1.50;;;;;;;;;;5025994;28;20463;-79
2023/03/23 15:06:58;;;;;;;3.10;0.87;;;;;;;;;;5033790;28;20542;-79
2023/03/23 15:09:33;;;;;;;2.03;0.97;;;;;;;;;;5039241;28;20440;-79
2023/03/23 15:12:01;;;;;;;2.70;0.97;;;;;;;;;;5041766;28;20484;-79